sensor_id;sensor_type;location;lat;lon;timestamp;pressure;altitude;pressure_sealevel;temperature;humidity
65329;BME280;51941;52.210;5.158;2023-02-15T00:01:46;102880.75;;;3.30;87.92
65329;BME280;51941;52.210;5.158;2023-02-15T00:04:16;102892.06;;;3.30;87.78
65329;BME280;51941;52.210;5.158;2023-02-15T00:06:43;102897.28;;;3.30;87.94
65329;BME280;51941;52.210;5.158;2023-02-15T00:09:11;102868.72;;;3.18;88.12
65329;BME280;51941;52.210;5.158;2023-02-15T00:11:39;102890.66;;;3.26;88.18
65329;BME280;51941;52.210;5.158;2023-02-15T00:14:07;102820.25;;;2.83;88.35
65329;BME280;51941;52.210;5.158;2023-02-15T00:16:34;102893.94;;;3.19;88.49
65329;BME280;51941;52.210;5.158;2023-02-15T00:19:01;102836.91;;;2.82;88.38
65329;BME280;51941;52.210;5.158;2023-02-15T00:21:30;102858.59;;;2.94;88.44
65329;BME280;51941;52.210;5.158;2023-02-15T00:23:58;102882.03;;;3.05;88.42
65329;BME280;51941;52.210;5.158;2023-02-15T00:26:27;102873.50;;;3.03;88.16
65329;BME280;51941;52.210;5.158;2023-02-15T00:28:55;102813.56;;;2.69;88.12
65329;BME280;51941;52.210;5.158;2023-02-15T00:31:26;102860.09;;;2.96;88.29
65329;BME280;51941;52.210;5.158;2023-02-15T00:33:55;102860.25;;;2.95;88.17
65329;BME280;51941;52.210;5.158;2023-02-15T00:36:21;102813.16;;;2.64;88.37
65329;BME280;51941;52.210;5.158;2023-02-15T00:38:48;102859.78;;;2.90;88.36
65329;BME280;51941;52.210;5.158;2023-02-15T00:41:16;102853.03;;;2.87;88.74
65329;BME280;51941;52.210;5.158;2023-02-15T00:43:44;102859.38;;;2.85;88.85
65329;BME280;51941;52.210;5.158;2023-02-15T00:46:10;102849.16;;;2.82;88.95
65329;BME280;51941;52.210;5.158;2023-02-15T00:48:38;102849.41;;;2.78;88.94
65329;BME280;51941;52.210;5.158;2023-02-15T00:51:05;102848.72;;;2.76;88.69
65329;BME280;51941;52.210;5.158;2023-02-15T00:53:32;102849.38;;;2.69;88.73
65329;BME280;51941;52.210;5.158;2023-02-15T00:55:59;102855.41;;;2.69;88.95
65329;BME280;51941;52.210;5.158;2023-02-15T00:58:25;102859.38;;;2.64;88.79
65329;BME280;51941;52.210;5.158;2023-02-15T01:00:54;102854.97;;;2.64;88.88
65329;BME280;51941;52.210;5.158;2023-02-15T01:03:22;102851.53;;;2.64;88.99
65329;BME280;51941;52.210;5.158;2023-02-15T01:05:49;102851.00;;;2.60;88.88
65329;BME280;51941;52.210;5.158;2023-02-15T01:08:16;102847.66;;;2.58;89.14
65329;BME280;51941;52.210;5.158;2023-02-15T01:10:43;102835.38;;;2.49;89.08
65329;BME280;51941;52.210;5.158;2023-02-15T01:13:13;102848.16;;;2.52;89.15
65329;BME280;51941;52.210;5.158;2023-02-15T01:15:41;102845.69;;;2.51;89.06
65329;BME280;51941;52.210;5.158;2023-02-15T01:18:09;102834.53;;;2.49;89.02
65329;BME280;51941;52.210;5.158;2023-02-15T01:20:38;102838.22;;;2.46;89.11
65329;BME280;51941;52.210;5.158;2023-02-15T01:23:07;102830.78;;;2.42;89.01
65329;BME280;51941;52.210;5.158;2023-02-15T01:25:35;102829.38;;;2.37;88.96
65329;BME280;51941;52.210;5.158;2023-02-15T01:28:02;102830.44;;;2.35;88.79
65329;BME280;51941;52.210;5.158;2023-02-15T01:30:31;102817.78;;;2.30;89.04
65329;BME280;51941;52.210;5.158;2023-02-15T01:32:58;102811.84;;;2.28;88.92
65329;BME280;51941;52.210;5.158;2023-02-15T01:35:28;102755.22;;;1.87;88.92
65329;BME280;51941;52.210;5.158;2023-02-15T01:37:55;102819.25;;;2.23;88.96
65329;BME280;51941;52.210;5.158;2023-02-15T01:40:23;102815.22;;;2.19;89.21
65329;BME280;51941;52.210;5.158;2023-02-15T01:42:50;102813.56;;;2.18;89.10
65329;BME280;51941;52.210;5.158;2023-02-15T01:45:23;102806.81;;;2.16;89.15
65329;BME280;51941;52.210;5.158;2023-02-15T01:47:53;102805.16;;;2.15;89.06
65329;BME280;51941;52.210;5.158;2023-02-15T01:50:25;102806.94;;;2.14;89.19
65329;BME280;51941;52.210;5.158;2023-02-15T01:52:58;102800.06;;;2.13;89.24
65329;BME280;51941;52.210;5.158;2023-02-15T01:55:30;102805.53;;;2.10;89.14
65329;BME280;51941;52.210;5.158;2023-02-15T01:58:00;102801.41;;;2.08;89.19
65329;BME280;51941;52.210;5.158;2023-02-15T02:00:29;102805.81;;;2.07;89.32
65329;BME280;51941;52.210;5.158;2023-02-15T02:02:56;102798.09;;;2.06;89.22
65329;BME280;51941;52.210;5.158;2023-02-15T02:05:24;102791.91;;;2.07;89.19
65329;BME280;51941;52.210;5.158;2023-02-15T02:07:56;102791.22;;;2.05;89.20
65329;BME280;51941;52.210;5.158;2023-02-15T02:10:25;102786.94;;;2.03;89.16
65329;BME280;51941;52.210;5.158;2023-02-15T02:12:55;102788.13;;;1.99;89.32
65329;BME280;51941;52.210;5.158;2023-02-15T02:15:31;102752.75;;;1.75;89.35
65329;BME280;51941;52.210;5.158;2023-02-15T02:18:15;102778.91;;;1.95;89.48
65329;BME280;51941;52.210;5.158;2023-02-15T02:21:29;102776.41;;;1.94;89.39
65329;BME280;51941;52.210;5.158;2023-02-15T02:24:28;102769.53;;;1.93;89.46
65329;BME280;51941;52.210;5.158;2023-02-15T02:27:21;102740.94;;;1.71;89.56
65329;BME280;51941;52.210;5.158;2023-02-15T02:33:36;102761.25;;;1.88;89.44
65329;BME280;51941;52.210;5.158;2023-02-15T02:36:15;102760.44;;;1.87;89.51
65329;BME280;51941;52.210;5.158;2023-02-15T02:38:54;102756.28;;;1.85;89.28
65329;BME280;51941;52.210;5.158;2023-02-15T02:41:31;102681.06;;;1.37;89.22
65329;BME280;51941;52.210;5.158;2023-02-15T02:44:07;102755.13;;;1.78;89.44
65329;BME280;51941;52.210;5.158;2023-02-15T02:46:40;102743.75;;;1.79;89.34
65329;BME280;51941;52.210;5.158;2023-02-15T02:49:12;102745.66;;;1.77;89.40
65329;BME280;51941;52.210;5.158;2023-02-15T02:51:38;102751.19;;;1.83;89.65
65329;BME280;51941;52.210;5.158;2023-02-15T02:54:06;102713.28;;;1.68;89.62
65329;BME280;51941;52.210;5.158;2023-02-15T02:56:36;102739.53;;;1.87;89.33
65329;BME280;51941;52.210;5.158;2023-02-15T02:59:09;102695.06;;;1.57;89.30
65329;BME280;51941;52.210;5.158;2023-02-15T03:01:42;102748.09;;;1.89;89.44
65329;BME280;51941;52.210;5.158;2023-02-15T03:04:13;102737.75;;;1.88;89.39
65329;BME280;51941;52.210;5.158;2023-02-15T03:06:46;102735.84;;;1.90;89.35
65329;BME280;51941;52.210;5.158;2023-02-15T03:09:21;102721.81;;;1.91;89.37
65329;BME280;51941;52.210;5.158;2023-02-15T03:11:50;102726.91;;;1.92;89.54
65329;BME280;51941;52.210;5.158;2023-02-15T03:14:20;102715.53;;;1.93;89.38
65329;BME280;51941;52.210;5.158;2023-02-15T03:16:48;102711.13;;;1.94;89.55
65329;BME280;51941;52.210;5.158;2023-02-15T03:19:22;102710.06;;;1.96;89.15
65329;BME280;51941;52.210;5.158;2023-02-15T03:21:51;102646.88;;;1.61;89.22
65329;BME280;51941;52.210;5.158;2023-02-15T03:24:32;102708.50;;;1.94;89.43
65329;BME280;51941;52.210;5.158;2023-02-15T03:27:01;102716.41;;;2.03;89.33
65329;BME280;51941;52.210;5.158;2023-02-15T03:29:30;102709.28;;;2.06;89.37
65329;BME280;51941;52.210;5.158;2023-02-15T03:32:00;102702.41;;;2.05;89.45
65329;BME280;51941;52.210;5.158;2023-02-15T03:34:31;102637.59;;;1.68;89.45
65329;BME280;51941;52.210;5.158;2023-02-15T03:37:01;102705.78;;;2.16;89.53
65329;BME280;51941;52.210;5.158;2023-02-15T03:39:32;102704.22;;;2.14;89.62
65329;BME280;51941;52.210;5.158;2023-02-15T03:42:07;102704.34;;;2.12;89.93
65329;BME280;51941;52.210;5.158;2023-02-15T03:44:44;102710.78;;;2.08;90.11
65329;BME280;51941;52.210;5.158;2023-02-15T03:47:15;102703.09;;;2.07;90.03
65329;BME280;51941;52.210;5.158;2023-02-15T03:49:49;102697.06;;;2.06;90.09
65329;BME280;51941;52.210;5.158;2023-02-15T03:52:18;102706.53;;;2.07;90.23
65329;BME280;51941;52.210;5.158;2023-02-15T03:54:46;102695.91;;;1.99;90.06
65329;BME280;51941;52.210;5.158;2023-02-15T03:57:18;102685.47;;;1.99;90.39
65329;BME280;51941;52.210;5.158;2023-02-15T04:00:08;102648.97;;;1.67;90.18
65329;BME280;51941;52.210;5.158;2023-02-15T04:05:44;102695.69;;;1.91;90.54
65329;BME280;51941;52.210;5.158;2023-02-15T04:08:12;102692.25;;;1.90;90.53
65329;BME280;51941;52.210;5.158;2023-02-15T04:10:39;102642.09;;;1.66;90.53
65329;BME280;51941;52.210;5.158;2023-02-15T04:13:24;102684.44;;;1.90;90.58
65329;BME280;51941;52.210;5.158;2023-02-15T04:15:53;102686.91;;;1.92;90.50
65329;BME280;51941;52.210;5.158;2023-02-15T04:18:29;102687.75;;;1.92;90.61
65329;BME280;51941;52.210;5.158;2023-02-15T04:21:14;102676.59;;;1.90;90.64
65329;BME280;51941;52.210;5.158;2023-02-15T04:23:59;102679.78;;;1.94;90.87
65329;BME280;51941;52.210;5.158;2023-02-15T04:26:43;102682.69;;;2.00;90.66
65329;BME280;51941;52.210;5.158;2023-02-15T04:29:10;102675.31;;;2.06;90.71
65329;BME280;51941;52.210;5.158;2023-02-15T04:31:37;102667.09;;;2.10;90.40
65329;BME280;51941;52.210;5.158;2023-02-15T04:34:03;102665.06;;;2.14;90.55
65329;BME280;51941;52.210;5.158;2023-02-15T04:36:32;102670.00;;;2.17;90.76
65329;BME280;51941;52.210;5.158;2023-02-15T04:38:58;102663.56;;;2.21;90.89
65329;BME280;51941;52.210;5.158;2023-02-15T04:41:25;102616.75;;;1.98;90.71
65329;BME280;51941;52.210;5.158;2023-02-15T04:43:52;102659.75;;;2.25;90.93
65329;BME280;51941;52.210;5.158;2023-02-15T04:46:19;102593.19;;;1.89;90.85
65329;BME280;51941;52.210;5.158;2023-02-15T04:48:45;102636.19;;;2.15;91.03
65329;BME280;51941;52.210;5.158;2023-02-15T04:51:12;102659.22;;;2.31;90.83
65329;BME280;51941;52.210;5.158;2023-02-15T04:53:40;102648.75;;;2.31;90.94
65329;BME280;51941;52.210;5.158;2023-02-15T04:56:07;102655.91;;;2.29;91.36
65329;BME280;51941;52.210;5.158;2023-02-15T04:58:34;102655.78;;;2.30;91.16
65329;BME280;51941;52.210;5.158;2023-02-15T05:01:02;102655.06;;;2.28;91.54
65329;BME280;51941;52.210;5.158;2023-02-15T05:03:29;102654.38;;;2.26;91.30
65329;BME280;51941;52.210;5.158;2023-02-15T05:05:56;102647.50;;;2.25;91.25
65329;BME280;51941;52.210;5.158;2023-02-15T05:08:23;102655.47;;;2.24;91.39
65329;BME280;51941;52.210;5.158;2023-02-15T05:10:51;102652.16;;;2.22;91.38
65329;BME280;51941;52.210;5.158;2023-02-15T05:13:17;102662.84;;;2.19;91.40
65329;BME280;51941;52.210;5.158;2023-02-15T05:15:47;102656.25;;;2.15;91.57
65329;BME280;51941;52.210;5.158;2023-02-15T05:18:15;102657.59;;;2.09;91.85
65329;BME280;51941;52.210;5.158;2023-02-15T05:20:42;102646.97;;;2.01;91.90
65329;BME280;51941;52.210;5.158;2023-02-15T05:23:09;102646.53;;;1.96;92.28
65329;BME280;51941;52.210;5.158;2023-02-15T05:25:36;102602.94;;;1.66;92.14
65329;BME280;51941;52.210;5.158;2023-02-15T05:28:27;102650.34;;;1.92;92.09
65329;BME280;51941;52.210;5.158;2023-02-15T05:31:03;102649.81;;;1.88;92.34
65329;BME280;51941;52.210;5.158;2023-02-15T05:33:30;102644.59;;;1.88;92.55
65329;BME280;51941;52.210;5.158;2023-02-15T05:35:57;102646.50;;;1.86;92.28
65329;BME280;51941;52.210;5.158;2023-02-15T05:38:24;102633.44;;;1.86;92.52
65329;BME280;51941;52.210;5.158;2023-02-15T05:40:51;102633.69;;;1.83;92.28
65329;BME280;51941;52.210;5.158;2023-02-15T05:43:18;102641.41;;;1.85;92.41
65329;BME280;51941;52.210;5.158;2023-02-15T05:45:47;102645.66;;;1.86;92.45
65329;BME280;51941;52.210;5.158;2023-02-15T05:48:14;102642.09;;;1.87;92.68
65329;BME280;51941;52.210;5.158;2023-02-15T05:50:41;102649.09;;;1.86;92.46
65329;BME280;51941;52.210;5.158;2023-02-15T05:53:07;102628.16;;;1.77;92.36
65329;BME280;51941;52.210;5.158;2023-02-15T05:55:37;102603.47;;;1.60;92.50
65329;BME280;51941;52.210;5.158;2023-02-15T05:58:06;102615.16;;;1.65;92.71
65329;BME280;51941;52.210;5.158;2023-02-15T06:00:33;102644.25;;;1.82;92.64
65329;BME280;51941;52.210;5.158;2023-02-15T06:03:01;102633.97;;;1.80;92.78
65329;BME280;51941;52.210;5.158;2023-02-15T06:05:28;102636.69;;;1.79;92.81
65329;BME280;51941;52.210;5.158;2023-02-15T06:07:55;102635.88;;;1.78;92.73
65329;BME280;51941;52.210;5.158;2023-02-15T06:10:22;102630.78;;;1.77;92.79
65329;BME280;51941;52.210;5.158;2023-02-15T06:12:48;102623.63;;;1.79;92.99
65329;BME280;51941;52.210;5.158;2023-02-15T06:15:15;102625.19;;;1.81;92.75
65329;BME280;51941;52.210;5.158;2023-02-15T06:17:42;102621.84;;;1.79;92.95
65329;BME280;51941;52.210;5.158;2023-02-15T06:20:11;102622.09;;;1.76;93.06
65329;BME280;51941;52.210;5.158;2023-02-15T06:22:38;102635.75;;;1.80;93.07
65329;BME280;51941;52.210;5.158;2023-02-15T06:25:05;102630.78;;;1.77;93.31
65329;BME280;51941;52.210;5.158;2023-02-15T06:27:35;102628.28;;;1.75;93.38
65329;BME280;51941;52.210;5.158;2023-02-15T06:30:03;102629.94;;;1.76;93.60
65329;BME280;51941;52.210;5.158;2023-02-15T06:32:29;102620.56;;;1.74;93.24
65329;BME280;51941;52.210;5.158;2023-02-15T06:34:56;102619.31;;;1.68;93.48
65329;BME280;51941;52.210;5.158;2023-02-15T06:37:24;102625.13;;;1.72;93.29
65329;BME280;51941;52.210;5.158;2023-02-15T06:39:51;102628.69;;;1.71;93.42
65329;BME280;51941;52.210;5.158;2023-02-15T06:42:18;102610.03;;;1.54;93.59
65329;BME280;51941;52.210;5.158;2023-02-15T06:44:45;102633.44;;;1.65;93.78
65329;BME280;51941;52.210;5.158;2023-02-15T06:47:12;102634.97;;;1.68;93.66
65329;BME280;51941;52.210;5.158;2023-02-15T06:49:39;102598.72;;;1.44;93.92
65329;BME280;51941;52.210;5.158;2023-02-15T06:52:06;102628.22;;;1.65;94.25
65329;BME280;51941;52.210;5.158;2023-02-15T06:54:34;102624.66;;;1.67;94.48
65329;BME280;51941;52.210;5.158;2023-02-15T06:57:01;102628.81;;;1.69;94.29
65329;BME280;51941;52.210;5.158;2023-02-15T06:59:28;102623.59;;;1.69;94.79
65329;BME280;51941;52.210;5.158;2023-02-15T07:01:54;102620.03;;;1.70;94.59
65329;BME280;51941;52.210;5.158;2023-02-15T07:04:21;102632.13;;;1.71;94.77
65329;BME280;51941;52.210;5.158;2023-02-15T07:06:48;102622.09;;;1.76;94.82
65329;BME280;51941;52.210;5.158;2023-02-15T07:09:15;102621.03;;;1.79;94.70
65329;BME280;51941;52.210;5.158;2023-02-15T07:11:43;102623.34;;;1.82;94.68
65329;BME280;51941;52.210;5.158;2023-02-15T07:14:27;102621.47;;;1.84;94.92
65329;BME280;51941;52.210;5.158;2023-02-15T07:16:54;102622.88;;;1.88;95.02
65329;BME280;51941;52.210;5.158;2023-02-15T07:19:21;102617.66;;;1.88;95.42
65329;BME280;51941;52.210;5.158;2023-02-15T07:21:47;102570.66;;;1.67;95.61
65329;BME280;51941;52.210;5.158;2023-02-15T07:24:14;102618.84;;;2.14;95.77
65329;BME280;51941;52.210;5.158;2023-02-15T07:26:42;102621.25;;;2.36;96.56
65329;BME280;51941;52.210;5.158;2023-02-15T07:29:09;102615.00;;;2.58;97.05
65329;BME280;51941;52.210;5.158;2023-02-15T07:31:36;102606.50;;;2.75;97.25
65329;BME280;51941;52.210;5.158;2023-02-15T07:34:03;102608.44;;;2.93;97.79
65329;BME280;51941;52.210;5.158;2023-02-15T07:36:31;102604.69;;;3.14;97.93
65329;BME280;51941;52.210;5.158;2023-02-15T07:38:58;102600.72;;;3.30;97.99
65329;BME280;51941;52.210;5.158;2023-02-15T07:41:25;102603.31;;;3.39;97.83
65329;BME280;51941;52.210;5.158;2023-02-15T07:43:53;102597.28;;;3.29;97.30
65329;BME280;51941;52.210;5.158;2023-02-15T07:46:20;102603.88;;;3.24;96.71
65329;BME280;51941;52.210;5.158;2023-02-15T07:48:47;102597.41;;;3.18;95.95
65329;BME280;51941;52.210;5.158;2023-02-15T07:51:14;102594.25;;;3.14;95.76
65329;BME280;51941;52.210;5.158;2023-02-15T07:53:41;102593.56;;;3.12;95.47
65329;BME280;51941;52.210;5.158;2023-02-15T07:56:10;102580.63;;;3.01;94.86
65329;BME280;51941;52.210;5.158;2023-02-15T07:58:37;102595.75;;;3.07;94.86
65329;BME280;51941;52.210;5.158;2023-02-15T08:01:19;102590.66;;;3.06;94.62
65329;BME280;51941;52.210;5.158;2023-02-15T08:03:47;102588.59;;;3.09;94.58
65329;BME280;51941;52.210;5.158;2023-02-15T08:06:14;102591.09;;;3.11;94.67
65329;BME280;51941;52.210;5.158;2023-02-15T08:08:42;102556.38;;;2.99;94.43
65329;BME280;51941;52.210;5.158;2023-02-15T08:11:16;102574.69;;;3.19;94.65
65329;BME280;51941;52.210;5.158;2023-02-15T08:13:55;102579.34;;;3.25;94.41
65329;BME280;51941;52.210;5.158;2023-02-15T08:16:28;102575.09;;;3.24;94.34
65329;BME280;51941;52.210;5.158;2023-02-15T08:18:56;102551.41;;;3.25;94.43
65329;BME280;51941;52.210;5.158;2023-02-15T08:21:25;102566.25;;;3.34;94.20
65329;BME280;51941;52.210;5.158;2023-02-15T08:23:52;102543.81;;;3.32;94.21
65329;BME280;51941;52.210;5.158;2023-02-15T08:26:20;102566.22;;;3.53;94.03
65329;BME280;51941;52.210;5.158;2023-02-15T08:28:46;102565.50;;;3.61;94.00
65329;BME280;51941;52.210;5.158;2023-02-15T08:31:15;102539.91;;;3.55;93.80
65329;BME280;51941;52.210;5.158;2023-02-15T08:33:44;102562.28;;;3.77;93.60
65329;BME280;51941;52.210;5.158;2023-02-15T08:36:13;102565.81;;;3.85;93.81
65329;BME280;51941;52.210;5.158;2023-02-15T08:38:41;102571.63;;;3.89;93.44
65329;BME280;51941;52.210;5.158;2023-02-15T08:41:15;102568.28;;;3.97;93.20
65329;BME280;51941;52.210;5.158;2023-02-15T08:43:43;102556.38;;;4.02;93.08
65329;BME280;51941;52.210;5.158;2023-02-15T08:46:10;102534.66;;;3.92;92.91
65329;BME280;51941;52.210;5.158;2023-02-15T08:48:38;102562.53;;;4.11;92.63
65329;BME280;51941;52.210;5.158;2023-02-15T08:51:08;102556.72;;;4.17;92.48
65329;BME280;51941;52.210;5.158;2023-02-15T08:53:36;102545.94;;;4.20;92.32
65329;BME280;51941;52.210;5.158;2023-02-15T08:56:03;102549.31;;;4.30;92.47
65329;BME280;51941;52.210;5.158;2023-02-15T08:58:30;102550.09;;;4.40;92.31
65329;BME280;51941;52.210;5.158;2023-02-15T09:00:58;102523.34;;;4.37;92.15
65329;BME280;51941;52.210;5.158;2023-02-15T09:03:25;102550.47;;;4.63;91.93
65329;BME280;51941;52.210;5.158;2023-02-15T09:05:58;102542.84;;;4.70;91.70
65329;BME280;51941;52.210;5.158;2023-02-15T09:08:27;102550.19;;;4.84;91.38
65329;BME280;51941;52.210;5.158;2023-02-15T09:10:54;102549.47;;;4.91;90.99
65329;BME280;51941;52.210;5.158;2023-02-15T09:13:30;102547.28;;;5.04;91.13
65329;BME280;51941;52.210;5.158;2023-02-15T09:15:59;102546.88;;;5.17;90.77
65329;BME280;51941;52.210;5.158;2023-02-15T09:18:25;102553.81;;;5.26;90.39
65329;BME280;51941;52.210;5.158;2023-02-15T09:20:52;102520.03;;;5.23;89.95
65329;BME280;51941;52.210;5.158;2023-02-15T09:23:20;102514.78;;;5.23;89.63
65329;BME280;51941;52.210;5.158;2023-02-15T09:25:48;102540.88;;;5.51;89.32
65329;BME280;51941;52.210;5.158;2023-02-15T09:28:15;102536.31;;;5.61;89.15
65329;BME280;51941;52.210;5.158;2023-02-15T09:30:42;102535.38;;;5.70;88.74
65329;BME280;51941;52.210;5.158;2023-02-15T09:33:09;102537.22;;;5.77;88.15
65329;BME280;51941;52.210;5.158;2023-02-15T09:35:35;102542.19;;;5.89;88.30
65329;BME280;51941;52.210;5.158;2023-02-15T09:38:02;102543.69;;;5.91;87.25
65329;BME280;51941;52.210;5.158;2023-02-15T09:40:31;102538.13;;;5.94;87.12
65329;BME280;51941;52.210;5.158;2023-02-15T09:43:17;102482.34;;;5.66;86.48
65329;BME280;51941;52.210;5.158;2023-02-15T09:45:57;102538.03;;;6.12;86.31
65329;BME280;51941;52.210;5.158;2023-02-15T09:48:39;102541.00;;;6.17;86.14
65329;BME280;51941;52.210;5.158;2023-02-15T09:51:21;102539.38;;;6.24;84.98
65329;BME280;51941;52.210;5.158;2023-02-15T09:54:07;102543.34;;;6.36;84.77
65329;BME280;51941;52.210;5.158;2023-02-15T09:56:39;102535.31;;;6.46;84.77
65329;BME280;51941;52.210;5.158;2023-02-15T09:59:15;102490.38;;;6.23;83.84
65329;BME280;51941;52.210;5.158;2023-02-15T10:01:52;102538.94;;;6.61;83.85
65329;BME280;51941;52.210;5.158;2023-02-15T10:04:47;102544.06;;;6.71;83.23
65329;BME280;51941;52.210;5.158;2023-02-15T10:07:27;102512.63;;;6.61;82.66
65329;BME280;51941;52.210;5.158;2023-02-15T10:10:08;102552.94;;;6.86;82.08
65329;BME280;51941;52.210;5.158;2023-02-15T10:12:56;102556.09;;;6.98;82.62
65329;BME280;51941;52.210;5.158;2023-02-15T10:15:45;102554.28;;;6.98;82.04
65329;BME280;51941;52.210;5.158;2023-02-15T10:18:39;102558.56;;;7.07;81.38
65329;BME280;51941;52.210;5.158;2023-02-15T10:21:17;102561.03;;;7.09;80.77
65329;BME280;51941;52.210;5.158;2023-02-15T10:24:04;102565.28;;;7.26;81.60
65329;BME280;51941;52.210;5.158;2023-02-15T10:26:42;102554.94;;;7.33;81.00
65329;BME280;51941;52.210;5.158;2023-02-15T10:29:18;102555.91;;;7.40;80.65
65329;BME280;51941;52.210;5.158;2023-02-15T10:31:51;102541.09;;;7.39;81.15
65329;BME280;51941;52.210;5.158;2023-02-15T10:34:19;102559.03;;;7.51;80.80
65329;BME280;51941;52.210;5.158;2023-02-15T10:37:16;102551.13;;;7.51;79.74
65329;BME280;51941;52.210;5.158;2023-02-15T10:39:52;102553.91;;;7.50;79.14
65329;BME280;51941;52.210;5.158;2023-02-15T10:42:30;102469.88;;;7.00;79.53
65329;BME280;51941;52.210;5.158;2023-02-15T10:45:09;102560.28;;;7.63;79.96
65329;BME280;51941;52.210;5.158;2023-02-15T10:47:53;102509.13;;;7.50;80.28
65329;BME280;51941;52.210;5.158;2023-02-15T10:50:32;102549.53;;;7.81;79.95
65329;BME280;51941;52.210;5.158;2023-02-15T10:56:12;102529.56;;;7.95;79.80
65329;BME280;51941;52.210;5.158;2023-02-15T10:59:01;102520.31;;;7.91;79.02
65329;BME280;51941;52.210;5.158;2023-02-15T11:01:38;102524.22;;;8.03;79.01
65329;BME280;51941;52.210;5.158;2023-02-15T11:04:38;102522.22;;;8.13;79.33
65329;BME280;51941;52.210;5.158;2023-02-15T11:07:11;102525.91;;;8.27;79.70
65329;BME280;51941;52.210;5.158;2023-02-15T11:09:43;102521.25;;;8.37;79.35
65329;BME280;51941;52.210;5.158;2023-02-15T11:12:14;102506.06;;;8.39;78.23
65329;BME280;51941;52.210;5.158;2023-02-15T11:14:46;102498.72;;;8.49;77.97
65329;BME280;51941;52.210;5.158;2023-02-15T11:17:17;102502.75;;;8.60;78.30
65329;BME280;51941;52.210;5.158;2023-02-15T11:19:55;102505.16;;;8.69;77.69
65329;BME280;51941;52.210;5.158;2023-02-15T11:22:26;102491.72;;;8.79;77.00
65329;BME280;51941;52.210;5.158;2023-02-15T11:24:53;102490.56;;;8.96;77.10
65329;BME280;51941;52.210;5.158;2023-02-15T11:27:25;102489.16;;;9.08;76.78
65329;BME280;51941;52.210;5.158;2023-02-15T11:29:58;102488.25;;;9.16;75.85
65329;BME280;51941;52.210;5.158;2023-02-15T11:32:28;102473.41;;;9.30;75.81
65329;BME280;51941;52.210;5.158;2023-02-15T11:35:02;102444.72;;;9.27;75.84
65329;BME280;51941;52.210;5.158;2023-02-15T11:37:36;102473.59;;;9.57;75.18
65329;BME280;51941;52.210;5.158;2023-02-15T11:40:15;102411.53;;;9.39;75.21
65329;BME280;51941;52.210;5.158;2023-02-15T11:42:45;102462.34;;;9.85;74.31
65329;BME280;51941;52.210;5.158;2023-02-15T11:45:21;102460.84;;;9.97;73.77
65329;BME280;51941;52.210;5.158;2023-02-15T11:47:49;102453.22;;;10.09;74.56
65329;BME280;51941;52.210;5.158;2023-02-15T11:50:21;102441.28;;;10.13;73.29
65329;BME280;51941;52.210;5.158;2023-02-15T11:52:49;102428.22;;;10.11;71.88
65329;BME280;51941;52.210;5.158;2023-02-15T11:55:20;102439.69;;;10.18;72.07
65329;BME280;51941;52.210;5.158;2023-02-15T11:57:51;102433.84;;;10.23;72.11
65329;BME280;51941;52.210;5.158;2023-02-15T12:00:27;102434.91;;;10.28;72.61
65329;BME280;51941;52.210;5.158;2023-02-15T12:03:03;102436.78;;;10.35;71.62
65329;BME280;51941;52.210;5.158;2023-02-15T12:05:37;102437.09;;;10.46;71.70
65329;BME280;51941;52.210;5.158;2023-02-15T12:08:13;102426.66;;;10.59;72.25
65329;BME280;51941;52.210;5.158;2023-02-15T12:10:55;102438.47;;;10.63;70.85
65329;BME280;51941;52.210;5.158;2023-02-15T12:13:24;102428.75;;;10.70;70.36
65329;BME280;51941;52.210;5.158;2023-02-15T12:15:52;102418.59;;;10.74;70.23
65329;BME280;51941;52.210;5.158;2023-02-15T12:18:34;102419.69;;;10.80;69.20
65329;BME280;51941;52.210;5.158;2023-02-15T12:21:08;102425.47;;;10.90;70.07
65329;BME280;51941;52.210;5.158;2023-02-15T12:23:43;102423.47;;;10.98;70.11
65329;BME280;51941;52.210;5.158;2023-02-15T12:26:14;102416.19;;;11.07;69.43
65329;BME280;51941;52.210;5.158;2023-02-15T12:28:43;102405.84;;;11.12;67.67
65329;BME280;51941;52.210;5.158;2023-02-15T12:31:20;102316.25;;;10.60;67.54
65329;BME280;51941;52.210;5.158;2023-02-15T12:33:51;102404.31;;;11.31;68.03
65329;BME280;51941;52.210;5.158;2023-02-15T12:36:22;102400.47;;;11.40;68.02
65329;BME280;51941;52.210;5.158;2023-02-15T12:39:09;102398.88;;;11.52;67.30
65329;BME280;51941;52.210;5.158;2023-02-15T12:41:46;102401.94;;;11.56;66.42
65329;BME280;51941;52.210;5.158;2023-02-15T12:44:17;102394.41;;;11.59;66.60
65329;BME280;51941;52.210;5.158;2023-02-15T12:46:57;102396.28;;;11.65;66.41
65329;BME280;51941;52.210;5.158;2023-02-15T12:49:26;102404.88;;;11.80;67.03
65329;BME280;51941;52.210;5.158;2023-02-15T12:51:56;102389.97;;;11.79;66.24
65329;BME280;51941;52.210;5.158;2023-02-15T12:54:33;102387.56;;;11.91;65.99
65329;BME280;51941;52.210;5.158;2023-02-15T12:57:23;102395.53;;;12.04;66.49
65329;BME280;51941;52.210;5.158;2023-02-15T12:59:53;102382.88;;;12.00;66.04
65329;BME280;51941;52.210;5.158;2023-02-15T13:02:27;102389.59;;;12.02;65.52
65329;BME280;51941;52.210;5.158;2023-02-15T13:04:56;102388.38;;;11.98;65.50
65329;BME280;51941;52.210;5.158;2023-02-15T13:07:30;102395.91;;;11.95;65.57
65329;BME280;51941;52.210;5.158;2023-02-15T13:09:58;102380.19;;;11.80;65.91
65329;BME280;51941;52.210;5.158;2023-02-15T13:12:27;102387.13;;;11.81;65.50
65329;BME280;51941;52.210;5.158;2023-02-15T13:14:56;102379.75;;;11.76;65.61
65329;BME280;51941;52.210;5.158;2023-02-15T13:17:26;102379.56;;;11.71;65.81
65329;BME280;51941;52.210;5.158;2023-02-15T13:19:57;102328.66;;;11.41;65.65
65329;BME280;51941;52.210;5.158;2023-02-15T13:22:31;102379.38;;;11.79;66.11
65329;BME280;51941;52.210;5.158;2023-02-15T13:25:03;102369.19;;;11.83;66.40
65329;BME280;51941;52.210;5.158;2023-02-15T13:27:35;102372.22;;;11.87;65.84
65329;BME280;51941;52.210;5.158;2023-02-15T13:30:13;102370.81;;;11.91;66.30
65329;BME280;51941;52.210;5.158;2023-02-15T13:32:45;102374.50;;;12.03;66.25